Isabel, Kansas
Current Conditions -  °F | °C
As of 12:35 AM on Friday 31 Oct 2014 (Local Time) from KPTT Reporting Station
Clear Clear  
Wind Chill: 41°   Ceiling: Unl
Heat Index: 46°   Visibility: 10mi
Dew Point: 34°   Wind: 10mph
Humidity: 62%   Direction: 20°NNE
Pressure: 30.34"   Gusts: NA
Location:  37.47°N, 98.55°W
Report Text: KPTT 310535Z AUTO 02009KT 10SM CLR 08/01 A3034 RMK AO2
Loading
Personal Weather Stations






























Interactive Weather Map
Tropical Storm Tracking
New forecast layout! Learn more

10-Day Weather Forecast

Advertisements
Track Severe Weather on mobile